INFORMACIÓN METAR y TAF
METAR FOR LEBB
ADDS - METARS form results

(1229 UTC 17 February 2019)
Data provider http://aviationweather.gov/metar/data/
 
METAR text: LEBB 171200Z 20010KT 130V270 CAVOK 20/M03 Q1020 NOSIG
Conditions at: LEBB (BILBAO/SONDICA , ES) observed 1200 UTC 17 February 2019
Temperature: 20.0°C (68°F)
Dewpoint: -3.0°C (27°F) [RH = 21%]
Pressure (altimeter): 30.12 inches Hg (1020.0 mb)
Winds: from the SSW (200 degrees) at 12 MPH (10 knots; 5.1 m/s)
Visibility: 6 or more miles (10+ km)
Ceiling: ceiling and visibility are OK
Clouds: unknown
Weather: no significant weather observed at this time

METAR text: LEBB 171130Z 19013KT 120V290 CAVOK 20/M04 Q1021 NOSIG
Conditions at: LEBB (BILBAO/SONDICA , ES) observed 1130 UTC 17 February 2019
Temperature: 20.0°C (68°F)
Dewpoint: -4.0°C (25°F) [RH = 19%]
Pressure (altimeter): 30.15 inches Hg (1021.0 mb)
Winds: from the S (190 degrees) at 15 MPH (13 knots; 6.7 m/s)
Visibility: 6 or more miles (10+ km)
Ceiling: ceiling and visibility are OK
Clouds: unknown
Weather: no significant weather observed at this time

Forecast for: LEBB (BILBAO/SONDICA , ES)
Text: TAF LEBB 171100Z 1712/1812 18009KT CAVOK TX19/1715Z TN06/1806Z
Forecast period: 1200 UTC 17 February 2019 to 1200 UTC 18 February 2019
Forecast type: FROM: standard forecast or significant change
Winds: from the S (180 degrees) at 10 MPH (9 knots; 4.6 m/s)
Visibility: 6 or more miles 10+ km)
Ceiling: unknown
Clouds: missing
Weather: no significant weather forecast for this period
Text: TEMPO 1712/1715 18015G25KT
Forecast period: 1200 to 1500 UTC 17 February 2019
Forecast type: TEMPORARY: The following changes expected for less than half the time period
Winds: from the S (180 degrees) at 17 MPH (15 knots; 7.7 m/s)
gusting to 29 MPH (25 knots; 12.9 m/s)
Visibility: missing
Ceiling: unknown
Clouds: missing
Weather: no significant weather forecast for this period

 MAPA DE AEROPUERTO

 INFORMACIÓN DE PISTA
Pista 10 Longitud 6562 ft Ancho 148 ft
Elevación 116 ft Umbral desplazado 0 ft Rumbo de pista 97
Pista 28 Longitud 6562 ft Ancho 148 ft
Elevación 129 ft Umbral desplazado 0 ft Rumbo de pista 277
Pista 12 Longitud 8530 ft Ancho 148 ft
Elevación 119 ft Umbral desplazado 0 ft Rumbo de pista 117
Pista 30 Longitud 8530 ft Ancho 148 ft
Elevación 128 ft Umbral desplazado 1509 ft Rumbo de pista 297

 FRECUANCIAS DEL AEROPUERTO
Tipo APP Nombre APP Frecuencia 120.7 MHZ
Tipo ATIS Nombre ATIS Frecuencia 118.825 MHZ
Tipo GND Nombre GND Frecuencia 121.7 MHZ
Tipo TWR Nombre TWR Frecuencia 118.5 MHZ

 RADIO AYUDAS DEL AEROPUERTO
Tipo VOR-DME Nombre Bilbao Frecuencia 115900 KHZ



Powered by Virtual Airlines Manager [v2.6.2]